Chickaloon, Alaska
Current Conditions -  °F | °C
As of 4:53 PM on Wednesday 22 Oct 2014 (Local Time) from PAAQ Reporting Station
Clear Clear  
Wind Chill: 31°   Ceiling: Unl
Heat Index: 37°   Visibility: 10mi
Dew Point: 26°   Wind: 8mph
Humidity: 65%   Direction: 160°SSE
Pressure: 29.34"   Gusts: NA
Location:  61.7964°N, 148.462°W
Report Text: PAAQ 230053Z 16007KT 10SM CLR 03/M03 A2934 RMK AO2 SLP940 T00281033
Loading
Personal Weather Stations






























Interactive Weather Map
Tropical Storm Tracking
New forecast layout! Learn more

10-Day Weather Forecast

Advertisements
Track Severe Weather on mobile